createdAt,value
2022-10-20T00:00:20.177Z,6.44
2022-10-20T00:01:20.148Z,6.42
2022-10-20T00:02:20.146Z,6.4
2022-10-20T00:03:20.143Z,6.42
2022-10-20T00:04:20.134Z,6.42
2022-10-20T00:05:20.133Z,6.43
2022-10-20T00:06:20.135Z,6.4
2022-10-20T00:07:20.121Z,6.41
2022-10-20T00:08:20.134Z,6.38
2022-10-20T00:09:20.147Z,6.32
2022-10-20T00:10:20.136Z,6.27
2022-10-20T00:11:20.149Z,6.25
2022-10-20T00:12:20.158Z,6.28
2022-10-20T00:13:20.322Z,6.26
2022-10-20T00:14:20.143Z,6.27
2022-10-20T00:15:20.126Z,6.3
2022-10-20T00:16:20.130Z,6.33
2022-10-20T00:17:20.141Z,6.35
2022-10-20T00:18:20.136Z,6.36
2022-10-20T00:19:20.142Z,6.36
2022-10-20T00:20:20.135Z,6.38
2022-10-20T00:21:20.154Z,6.37
2022-10-20T00:22:20.137Z,6.36
2022-10-20T00:23:20.166Z,6.38
2022-10-20T00:24:20.211Z,6.38
2022-10-20T00:25:20.138Z,6.37
2022-10-20T00:26:20.135Z,6.34
2022-10-20T00:27:20.133Z,6.37
2022-10-20T00:28:20.129Z,6.38
2022-10-20T00:29:20.143Z,6.41
2022-10-20T00:30:23.812Z,6.45
2022-10-20T00:31:20.144Z,6.51
2022-10-20T00:32:20.133Z,6.53
2022-10-20T00:33:20.142Z,6.62
2022-10-20T00:34:20.248Z,6.64
2022-10-20T00:35:20.141Z,6.66
2022-10-20T00:36:20.400Z,6.68
2022-10-20T00:37:20.243Z,6.69
2022-10-20T00:38:20.128Z,6.68
2022-10-20T00:39:20.249Z,6.73
2022-10-20T00:40:20.443Z,6.76
2022-10-20T00:41:20.138Z,6.79
2022-10-20T00:42:20.135Z,6.81
2022-10-20T00:43:20.139Z,6.84
2022-10-20T00:44:20.156Z,6.85
2022-10-20T00:45:20.160Z,6.85
2022-10-20T00:46:20.141Z,6.86
2022-10-20T00:47:20.149Z,6.88
2022-10-20T00:48:20.106Z,6.9
2022-10-20T00:49:20.128Z,6.9
2022-10-20T00:50:20.128Z,6.92
2022-10-20T00:51:20.127Z,6.95
2022-10-20T00:52:20.130Z,6.95
2022-10-20T00:53:20.140Z,6.95
2022-10-20T00:54:20.136Z,6.94
2022-10-20T00:55:20.132Z,6.97
2022-10-20T00:56:20.151Z,6.96
2022-10-20T00:57:20.148Z,6.95
2022-10-20T00:58:20.135Z,6.92
2022-10-20T00:59:20.115Z,6.92
2022-10-20T01:00:20.127Z,6.91
2022-10-20T01:01:20.180Z,6.89
2022-10-20T01:02:20.138Z,6.88
2022-10-20T01:03:20.132Z,6.85
2022-10-20T01:04:20.141Z,6.83
2022-10-20T01:05:20.131Z,6.82
2022-10-20T01:06:20.143Z,6.81
2022-10-20T01:07:20.127Z,6.81
2022-10-20T01:08:20.679Z,6.84
2022-10-20T01:09:20.664Z,6.85
2022-10-20T01:10:20.757Z,6.85
2022-10-20T01:11:20.679Z,6.86
2022-10-20T01:12:20.671Z,6.85
2022-10-20T01:13:20.691Z,6.84
2022-10-20T01:14:20.677Z,6.83
2022-10-20T01:15:20.777Z,6.8
2022-10-20T01:16:20.684Z,6.78
2022-10-20T01:17:20.724Z,6.78
2022-10-20T01:18:20.680Z,6.8
2022-10-20T01:19:20.701Z,6.84
2022-10-20T01:20:20.758Z,6.86
2022-10-20T01:21:20.677Z,6.89
2022-10-20T01:22:20.922Z,6.9
2022-10-20T01:23:20.678Z,6.93
2022-10-20T01:24:20.734Z,6.94
2022-10-20T01:25:20.763Z,6.9
2022-10-20T01:26:20.739Z,6.9
2022-10-20T01:27:20.740Z,6.88
2022-10-20T01:28:20.690Z,6.86
2022-10-20T01:29:20.742Z,6.84
2022-10-20T01:30:20.819Z,6.85
2022-10-20T01:31:20.906Z,6.86
2022-10-20T01:32:20.020Z,6.86
2022-10-20T01:33:20.313Z,6.85
2022-10-20T01:34:20.518Z,6.84
2022-10-20T01:35:20.860Z,6.85
2022-10-20T01:36:20.129Z,6.86
2022-10-20T01:37:28.155Z,6.85
2022-10-20T01:38:20.122Z,6.85
2022-10-20T01:39:20.140Z,6.86
2022-10-20T01:40:20.159Z,6.87
2022-10-20T01:41:20.135Z,6.87
2022-10-20T01:42:20.144Z,6.87
2022-10-20T01:43:20.131Z,6.86
2022-10-20T01:44:20.232Z,6.84
2022-10-20T01:45:20.159Z,6.84
2022-10-20T01:46:20.135Z,6.83
2022-10-20T01:47:20.145Z,6.81
2022-10-20T01:48:20.132Z,6.81
2022-10-20T01:49:20.134Z,6.81
2022-10-20T01:50:20.134Z,6.85
2022-10-20T01:51:20.139Z,6.85
2022-10-20T01:52:20.165Z,6.89
2022-10-20T01:53:20.140Z,6.88
2022-10-20T01:54:20.196Z,6.88
2022-10-20T01:55:20.378Z,6.88
2022-10-20T01:56:20.134Z,6.87
2022-10-20T01:57:20.135Z,6.89
2022-10-20T01:58:20.131Z,6.86
2022-10-20T01:59:20.344Z,6.86
2022-10-20T02:00:20.143Z,6.81
2022-10-20T02:01:20.362Z,6.75
2022-10-20T02:02:20.266Z,6.69
2022-10-20T02:03:20.406Z,6.65
2022-10-20T02:04:20.235Z,6.6
2022-10-20T02:05:20.526Z,6.58
2022-10-20T02:06:20.737Z,6.55
2022-10-20T02:07:20.131Z,6.51
2022-10-20T02:08:20.233Z,6.49
2022-10-20T02:09:20.126Z,6.47
2022-10-20T02:10:20.368Z,6.46
2022-10-20T02:11:20.246Z,6.45
2022-10-20T02:12:20.361Z,6.45
2022-10-20T02:13:20.588Z,6.46
2022-10-20T02:14:20.449Z,6.44
2022-10-20T02:15:20.719Z,6.41
2022-10-20T02:16:20.142Z,6.39
2022-10-20T02:17:20.434Z,6.37
2022-10-20T02:18:20.819Z,6.39
2022-10-20T02:19:20.164Z,6.41
2022-10-20T02:20:20.374Z,6.43
2022-10-20T02:21:20.230Z,6.46
2022-10-20T02:22:20.444Z,6.51
2022-10-20T02:23:20.207Z,6.55
2022-10-20T02:24:20.444Z,6.57
2022-10-20T02:25:20.127Z,6.57
2022-10-20T02:26:20.139Z,6.58
2022-10-20T02:27:20.131Z,6.57
2022-10-20T02:28:20.158Z,6.55
2022-10-20T02:29:20.142Z,6.55
2022-10-20T02:30:20.167Z,6.58
2022-10-20T02:31:20.228Z,6.61
2022-10-20T02:32:20.150Z,6.63
2022-10-20T02:33:20.135Z,6.64
2022-10-20T02:34:20.124Z,6.64
2022-10-20T02:35:20.366Z,6.66
2022-10-20T02:36:20.119Z,6.66
2022-10-20T02:37:20.142Z,6.69
2022-10-20T02:38:20.141Z,6.68
2022-10-20T02:39:20.152Z,6.68
2022-10-20T02:40:20.158Z,6.67
2022-10-20T02:41:20.270Z,6.67
2022-10-20T02:42:20.137Z,6.68
2022-10-20T02:43:20.261Z,6.7
2022-10-20T02:44:20.159Z,6.69
2022-10-20T02:45:20.170Z,6.69
2022-10-20T02:46:20.132Z,6.7
2022-10-20T02:47:20.143Z,6.71
2022-10-20T02:48:20.123Z,6.72
2022-10-20T02:49:20.160Z,6.74
2022-10-20T02:50:20.158Z,6.73
2022-10-20T02:51:20.142Z,6.73
2022-10-20T02:52:20.152Z,6.71
2022-10-20T02:53:20.160Z,6.69
2022-10-20T02:54:20.140Z,6.71
2022-10-20T02:55:20.142Z,6.69
2022-10-20T02:56:20.137Z,6.69
2022-10-20T02:57:20.157Z,6.65
2022-10-20T02:58:20.137Z,6.64
2022-10-20T02:59:20.141Z,6.63
2022-10-20T03:00:20.148Z,6.6
2022-10-20T03:01:20.191Z,6.6
2022-10-20T03:02:20.141Z,6.59
2022-10-20T03:03:20.154Z,6.6
2022-10-20T03:04:20.157Z,6.6
2022-10-20T03:05:20.140Z,6.59
2022-10-20T03:06:20.128Z,6.57
2022-10-20T03:07:20.133Z,6.57
2022-10-20T03:08:20.146Z,6.56
2022-10-20T03:09:20.144Z,6.56
2022-10-20T03:10:20.127Z,6.55
2022-10-20T03:11:20.134Z,6.52
2022-10-20T03:12:20.149Z,6.5
2022-10-20T03:13:20.202Z,6.46
2022-10-20T03:14:20.196Z,6.46
2022-10-20T03:15:20.141Z,6.46
2022-10-20T03:16:20.130Z,6.46
2022-10-20T03:17:20.120Z,6.44
2022-10-20T03:18:20.149Z,6.45
2022-10-20T03:19:20.140Z,6.42
2022-10-20T03:20:20.138Z,6.42
2022-10-20T03:21:20.143Z,6.41
2022-10-20T03:22:20.192Z,6.4
2022-10-20T03:23:21.148Z,6.4
2022-10-20T03:24:20.133Z,6.41
2022-10-20T03:25:20.130Z,6.43
2022-10-20T03:26:20.149Z,6.44
2022-10-20T03:27:20.148Z,6.43
2022-10-20T03:28:20.128Z,6.44
2022-10-20T03:29:20.147Z,6.44
2022-10-20T03:30:20.120Z,6.43
2022-10-20T03:31:20.148Z,6.41
2022-10-20T03:32:20.130Z,6.4
2022-10-20T03:33:20.150Z,6.38
2022-10-20T03:34:20.135Z,6.36
2022-10-20T03:35:20.138Z,6.36
2022-10-20T03:36:20.149Z,6.34
2022-10-20T03:37:20.199Z,6.33
2022-10-20T03:38:20.151Z,6.31
2022-10-20T03:39:20.143Z,6.29
2022-10-20T03:40:20.130Z,6.29
2022-10-20T03:41:20.141Z,6.3
2022-10-20T03:42:20.122Z,6.31
2022-10-20T03:43:20.131Z,6.3
2022-10-20T03:44:20.141Z,6.31
2022-10-20T03:45:20.133Z,6.3
2022-10-20T03:46:20.153Z,6.29
2022-10-20T03:47:20.140Z,6.3
2022-10-20T03:48:20.396Z,6.3
2022-10-20T03:49:20.354Z,6.3
2022-10-20T03:50:20.405Z,6.31
2022-10-20T03:51:20.278Z,6.32
2022-10-20T03:52:20.147Z,6.34
2022-10-20T03:53:20.251Z,6.34
2022-10-20T03:54:20.452Z,6.34
2022-10-20T03:55:20.128Z,6.34
2022-10-20T03:56:20.133Z,6.34
2022-10-20T03:57:20.140Z,6.36
2022-10-20T03:58:20.154Z,6.38
2022-10-20T03:59:20.165Z,6.38
2022-10-20T04:00:20.204Z,6.37
2022-10-20T04:01:20.166Z,6.35
2022-10-20T04:02:20.126Z,6.36
2022-10-20T04:03:20.141Z,6.36
2022-10-20T04:04:20.138Z,6.36
2022-10-20T04:05:20.131Z,6.36
2022-10-20T04:06:20.137Z,6.37
2022-10-20T04:07:20.128Z,6.35
2022-10-20T04:08:20.149Z,6.34
2022-10-20T04:09:20.130Z,6.35
2022-10-20T04:10:20.123Z,6.35
2022-10-20T04:11:20.136Z,6.35
2022-10-20T04:12:20.156Z,6.38
2022-10-20T04:13:20.143Z,6.39
2022-10-20T04:14:20.131Z,6.39
2022-10-20T04:15:20.123Z,6.39
2022-10-20T04:16:20.138Z,6.41
2022-10-20T04:17:20.127Z,6.37
2022-10-20T04:18:20.128Z,6.34
2022-10-20T04:19:20.129Z,6.34
2022-10-20T04:20:20.227Z,6.33
2022-10-20T04:21:20.135Z,6.31
2022-10-20T04:22:20.499Z,6.29
2022-10-20T04:23:21.424Z,6.29
2022-10-20T04:24:20.802Z,6.25
2022-10-20T04:25:20.535Z,6.25
2022-10-20T04:26:20.139Z,6.25
2022-10-20T04:27:20.255Z,6.25
2022-10-20T04:28:20.209Z,6.23
2022-10-20T04:29:20.397Z,6.22
2022-10-20T04:30:20.199Z,6.2
2022-10-20T04:31:20.411Z,6.19
2022-10-20T04:32:20.676Z,6.18
2022-10-20T04:33:20.150Z,6.16
2022-10-20T04:34:20.164Z,6.15
2022-10-20T04:35:20.125Z,6.14
2022-10-20T04:36:20.122Z,6.16
2022-10-20T04:37:20.131Z,6.19
2022-10-20T04:38:20.119Z,6.21
2022-10-20T04:39:20.132Z,6.22
2022-10-20T04:40:20.140Z,6.23
2022-10-20T04:41:20.290Z,6.23
2022-10-20T04:42:20.454Z,6.25
2022-10-20T04:43:20.899Z,6.24
2022-10-20T04:44:21.259Z,6.25
2022-10-20T04:45:20.559Z,6.25
2022-10-20T04:46:20.844Z,6.27
2022-10-20T04:47:20.548Z,6.29
2022-10-20T04:48:20.643Z,6.31
2022-10-20T04:49:20.787Z,6.29
2022-10-20T04:50:20.137Z,6.27
2022-10-20T04:51:20.132Z,6.26
2022-10-20T04:52:20.130Z,6.25
2022-10-20T04:53:20.130Z,6.25
2022-10-20T04:54:20.158Z,6.22
2022-10-20T04:55:20.120Z,6.21
2022-10-20T04:56:20.144Z,6.19
2022-10-20T04:57:20.171Z,6.16
2022-10-20T04:58:20.145Z,6.14
2022-10-20T04:59:20.163Z,6.12
2022-10-20T05:00:20.138Z,6.11
2022-10-20T05:01:20.165Z,6.09
2022-10-20T05:02:20.143Z,6.09
2022-10-20T05:03:20.154Z,6.08
2022-10-20T05:04:20.150Z,6.08
2022-10-20T05:05:20.136Z,6.09
2022-10-20T05:06:20.137Z,6.11
2022-10-20T05:07:20.140Z,6.13
2022-10-20T05:08:20.154Z,6.15
2022-10-20T05:09:20.153Z,6.16
2022-10-20T05:10:20.131Z,6.16
2022-10-20T05:11:20.137Z,6.15
2022-10-20T05:12:20.137Z,6.15
2022-10-20T05:13:20.124Z,6.15
2022-10-20T05:14:20.126Z,6.15
2022-10-20T05:15:20.251Z,6.11
2022-10-20T05:16:20.144Z,6.07
2022-10-20T05:17:20.127Z,6.03
2022-10-20T05:18:20.136Z,5.98
2022-10-20T05:19:20.139Z,5.93
2022-10-20T05:20:20.177Z,5.9
2022-10-20T05:21:20.140Z,5.84
2022-10-20T05:22:20.128Z,5.81
2022-10-20T05:23:20.152Z,5.73
2022-10-20T05:24:26.498Z,5.68
2022-10-20T05:25:35.885Z,5.65
2022-10-20T05:26:20.131Z,5.62
2022-10-20T05:27:20.128Z,5.57
2022-10-20T05:28:20.521Z,5.48
2022-10-20T05:29:20.119Z,5.4
2022-10-20T05:30:20.245Z,5.31
2022-10-20T05:31:20.386Z,5.28
2022-10-20T05:32:20.146Z,5.25
2022-10-20T05:33:20.342Z,5.23
2022-10-20T05:34:20.538Z,5.21
2022-10-20T05:35:20.695Z,5.17
2022-10-20T05:36:23.152Z,5.13
2022-10-20T05:37:22.224Z,5.11
2022-10-20T05:38:20.250Z,5.2
2022-10-20T05:39:20.127Z,5.31
2022-10-20T05:40:20.135Z,5.41
2022-10-20T05:41:20.138Z,5.45
2022-10-20T05:42:20.139Z,5.47
2022-10-20T05:43:20.169Z,5.51
2022-10-20T05:44:20.234Z,5.51
2022-10-20T05:45:20.337Z,5.5
2022-10-20T05:46:20.139Z,5.53
2022-10-20T05:47:20.137Z,5.53
2022-10-20T05:48:20.168Z,5.53
2022-10-20T05:49:20.405Z,5.52
2022-10-20T05:50:20.145Z,5.51
2022-10-20T05:51:20.121Z,5.47
2022-10-20T05:52:20.143Z,5.45
2022-10-20T05:53:20.163Z,5.44
2022-10-20T05:54:20.146Z,5.45
2022-10-20T05:55:20.142Z,5.45
2022-10-20T05:56:20.140Z,5.44
2022-10-20T05:57:20.134Z,5.44
2022-10-20T05:58:23.242Z,5.47
2022-10-20T05:59:20.138Z,5.49
2022-10-20T06:00:20.130Z,5.49
2022-10-20T06:01:20.157Z,5.5
2022-10-20T06:02:20.143Z,5.49
2022-10-20T06:03:23.707Z,5.48
2022-10-20T06:04:20.165Z,5.45
2022-10-20T06:05:20.150Z,5.44
2022-10-20T06:06:20.174Z,5.42
2022-10-20T06:07:20.143Z,5.39
2022-10-20T06:08:20.142Z,5.37
2022-10-20T06:09:20.155Z,5.35
2022-10-20T06:10:20.137Z,5.32
2022-10-20T06:11:20.127Z,5.31
2022-10-20T06:12:20.148Z,5.32
2022-10-20T06:13:20.133Z,5.34
2022-10-20T06:14:20.157Z,5.37
2022-10-20T06:15:20.142Z,5.38
2022-10-20T06:16:20.137Z,5.39
2022-10-20T06:17:20.180Z,5.39
2022-10-20T06:18:20.230Z,5.42
2022-10-20T06:19:20.135Z,5.42
2022-10-20T06:20:20.135Z,5.43
2022-10-20T06:21:20.147Z,5.43
2022-10-20T06:22:20.138Z,5.45
2022-10-20T06:23:20.137Z,5.47
2022-10-20T06:24:20.137Z,5.5
2022-10-20T06:25:20.136Z,5.53
2022-10-20T06:26:20.142Z,5.57
2022-10-20T06:27:20.139Z,5.62
2022-10-20T06:28:20.202Z,5.66
2022-10-20T06:29:20.146Z,5.69
2022-10-20T06:30:20.166Z,5.72
2022-10-20T06:31:20.132Z,5.75
2022-10-20T06:32:20.145Z,5.75
2022-10-20T06:33:20.131Z,5.77
2022-10-20T06:34:20.133Z,5.8
2022-10-20T06:35:20.146Z,5.85
2022-10-20T06:36:20.134Z,5.88
2022-10-20T06:37:20.144Z,5.91
2022-10-20T06:38:20.139Z,5.95
2022-10-20T06:39:20.147Z,5.99
2022-10-20T06:40:20.147Z,6.02
2022-10-20T06:41:20.208Z,6.05
2022-10-20T06:42:20.160Z,6.05
2022-10-20T06:43:20.129Z,6.1
2022-10-20T06:44:20.131Z,6.14
2022-10-20T06:45:20.140Z,6.18
2022-10-20T06:46:20.125Z,6.22
2022-10-20T06:47:20.140Z,6.26
2022-10-20T06:48:20.130Z,6.29
2022-10-20T06:49:20.132Z,6.32
2022-10-20T06:50:20.154Z,6.34
2022-10-20T06:51:20.151Z,6.36
2022-10-20T06:52:20.600Z,6.38
2022-10-20T06:53:20.127Z,6.37
2022-10-20T06:54:20.325Z,6.38
2022-10-20T06:55:20.447Z,6.41
2022-10-20T06:56:20.706Z,6.42
2022-10-20T06:57:20.955Z,6.43
2022-10-20T06:58:20.517Z,6.45
2022-10-20T06:59:20.131Z,6.47
2022-10-20T07:00:20.266Z,6.48
2022-10-20T07:01:20.514Z,6.52
2022-10-20T07:02:20.735Z,6.53
2022-10-20T07:03:20.125Z,6.56
2022-10-20T07:04:20.414Z,6.58
2022-10-20T07:05:20.693Z,6.64
2022-10-20T07:06:20.413Z,6.68
2022-10-20T07:07:20.119Z,6.72
2022-10-20T07:08:20.416Z,6.74
2022-10-20T07:09:20.123Z,6.78
2022-10-20T07:10:20.162Z,6.82
2022-10-20T07:11:20.131Z,6.86
2022-10-20T07:12:20.141Z,6.9
2022-10-20T07:13:20.142Z,6.92
2022-10-20T07:14:20.143Z,6.95
2022-10-20T07:15:20.204Z,7
2022-10-20T07:16:20.151Z,7.01
2022-10-20T07:17:20.137Z,7.05
2022-10-20T07:18:20.146Z,7.08
2022-10-20T07:19:20.128Z,7.12
2022-10-20T07:20:20.130Z,7.16
2022-10-20T07:21:20.140Z,7.2
2022-10-20T07:22:20.129Z,7.23
2022-10-20T07:23:20.146Z,7.26
2022-10-20T07:24:20.125Z,7.3
2022-10-20T07:25:20.138Z,7.34
2022-10-20T07:26:20.155Z,7.37
2022-10-20T07:27:20.252Z,7.39
2022-10-20T07:28:20.147Z,7.44
2022-10-20T07:29:20.193Z,7.5
2022-10-20T07:30:20.129Z,7.52
2022-10-20T07:31:20.136Z,7.58
2022-10-20T07:32:20.124Z,7.62
2022-10-20T07:33:20.136Z,7.64
2022-10-20T07:34:26.059Z,7.69
2022-10-20T07:35:20.126Z,7.72
2022-10-20T07:36:20.145Z,7.77
2022-10-20T07:37:20.137Z,7.81
2022-10-20T07:38:20.206Z,7.8
2022-10-20T07:39:20.187Z,7.86
2022-10-20T07:40:20.160Z,7.9
2022-10-20T07:41:20.138Z,7.95
2022-10-20T07:42:20.153Z,8.01
2022-10-20T07:43:20.128Z,8.08
2022-10-20T07:44:20.129Z,8.1
2022-10-20T07:45:20.138Z,8.16
2022-10-20T07:46:20.122Z,8.22
2022-10-20T07:47:20.116Z,8.28
2022-10-20T07:48:20.127Z,8.34
2022-10-20T07:49:43.242Z,8.4
2022-10-20T07:50:20.183Z,8.44
2022-10-20T07:51:20.149Z,8.47
2022-10-20T07:52:20.127Z,8.52
2022-10-20T07:53:20.291Z,8.57
2022-10-20T07:54:20.621Z,8.57
2022-10-20T07:55:37.970Z,8.65
2022-10-20T07:56:21.194Z,8.67
2022-10-20T07:57:20.643Z,8.65
2022-10-20T07:58:20.074Z,8.69
2022-10-20T07:59:20.392Z,8.72
2022-10-20T08:00:20.591Z,8.76
2022-10-20T08:01:20.164Z,8.83
2022-10-20T08:02:20.211Z,8.87
2022-10-20T08:03:20.143Z,8.94
2022-10-20T08:04:20.140Z,8.96
2022-10-20T08:05:20.175Z,9.05
2022-10-20T08:06:20.143Z,9.12
2022-10-20T08:07:20.133Z,9.2
2022-10-20T08:08:20.141Z,9.27
2022-10-20T08:09:20.136Z,9.35
2022-10-20T08:10:20.171Z,9.41
2022-10-20T08:11:20.130Z,9.41
2022-10-20T08:12:20.146Z,9.42
2022-10-20T08:13:20.136Z,9.48
2022-10-20T08:14:20.366Z,9.44
2022-10-20T08:15:20.172Z,9.45
2022-10-20T08:16:20.414Z,9.44
2022-10-20T08:17:20.179Z,9.51
2022-10-20T08:18:20.430Z,9.57
2022-10-20T08:19:23.179Z,9.63
2022-10-20T08:20:23.686Z,9.69
2022-10-20T08:21:20.142Z,9.72
2022-10-20T08:22:20.156Z,9.74
2022-10-20T08:23:20.197Z,9.76
2022-10-20T08:24:20.146Z,9.83
2022-10-20T08:25:20.319Z,9.86
2022-10-20T08:26:20.134Z,9.94
2022-10-20T08:27:20.152Z,10.02
2022-10-20T08:28:24.713Z,10.03
2022-10-20T08:29:20.129Z,10.08
2022-10-20T08:30:24.256Z,10.08
2022-10-20T08:31:20.148Z,10.16
2022-10-20T08:32:20.129Z,10.25
2022-10-20T08:33:20.176Z,10.28
2022-10-20T08:34:20.138Z,10.31
2022-10-20T08:35:20.150Z,10.4
2022-10-20T08:36:20.125Z,10.42
2022-10-20T08:37:20.171Z,10.49
2022-10-20T08:38:20.140Z,10.59
2022-10-20T08:39:20.122Z,10.6
2022-10-20T08:40:20.392Z,10.67
2022-10-20T08:41:20.127Z,10.74
2022-10-20T08:42:20.382Z,10.84
2022-10-20T08:43:20.278Z,10.91
2022-10-20T08:44:20.550Z,11
2022-10-20T08:45:20.284Z,11.2
2022-10-20T08:46:20.472Z,11.31
2022-10-20T08:47:20.320Z,11.48
2022-10-20T08:48:20.506Z,11.65
2022-10-20T08:49:20.164Z,11.78
2022-10-20T08:50:20.133Z,11.96
2022-10-20T08:51:20.125Z,12.15
2022-10-20T08:52:20.133Z,12.3
2022-10-20T08:53:20.149Z,12.53
2022-10-20T08:54:20.139Z,12.82
2022-10-20T08:56:20.133Z,13.28
2022-10-20T08:57:20.125Z,13.42
2022-10-20T08:58:20.155Z,13.37
2022-10-20T08:59:20.411Z,13.23
2022-10-20T09:00:20.175Z,12.97
2022-10-20T09:01:20.259Z,12.89
2022-10-20T09:02:20.272Z,12.88
2022-10-20T09:03:20.140Z,12.75
2022-10-20T09:04:20.133Z,12.7
2022-10-20T09:05:20.132Z,12.71
2022-10-20T09:06:20.136Z,12.7
2022-10-20T09:07:20.131Z,12.72
2022-10-20T09:08:20.134Z,12.82
2022-10-20T09:09:20.132Z,12.88
2022-10-20T09:10:20.189Z,12.87
2022-10-20T09:11:20.142Z,12.92
2022-10-20T09:12:20.305Z,12.96
2022-10-20T09:13:20.134Z,13.08
2022-10-20T09:14:20.131Z,13.11
2022-10-20T09:15:20.142Z,13.11
2022-10-20T09:16:28.563Z,13.13
2022-10-20T09:17:20.132Z,13.25
2022-10-20T09:18:20.137Z,13.42
2022-10-20T09:19:20.140Z,13.44
2022-10-20T09:20:20.136Z,13.49
2022-10-20T09:21:20.142Z,13.53
2022-10-20T09:22:20.122Z,13.52
2022-10-20T09:23:39.729Z,13.55
2022-10-20T09:24:20.129Z,13.5
2022-10-20T09:25:20.143Z,13.46
2022-10-20T09:26:30.306Z,13.3
2022-10-20T09:27:20.134Z,13.28
2022-10-20T09:28:20.147Z,13.27
2022-10-20T09:29:20.138Z,13.23
2022-10-20T09:30:20.126Z,13.24
2022-10-20T09:31:20.153Z,13.32
2022-10-20T09:32:44.763Z,13.37
2022-10-20T09:33:20.150Z,13.5
2022-10-20T09:34:20.171Z,13.73
2022-10-20T09:35:20.130Z,13.86
2022-10-20T09:36:20.130Z,13.91
2022-10-20T09:37:20.132Z,13.94
2022-10-20T09:38:20.130Z,14.1
2022-10-20T09:39:20.144Z,14.2
2022-10-20T09:40:20.132Z,14.12
2022-10-20T09:41:20.134Z,14.14
2022-10-20T09:42:20.137Z,14.07
2022-10-20T09:43:20.122Z,14.05
2022-10-20T09:44:20.140Z,13.99
2022-10-20T09:45:20.174Z,13.92
2022-10-20T09:46:20.256Z,13.89
2022-10-20T09:47:20.134Z,13.77
2022-10-20T09:48:20.143Z,13.71
2022-10-20T09:49:20.133Z,13.65
2022-10-20T09:50:20.131Z,13.61
2022-10-20T09:51:20.141Z,13.55
2022-10-20T09:52:20.129Z,13.52
2022-10-20T09:53:20.134Z,13.56
2022-10-20T09:54:20.136Z,13.57
2022-10-20T09:55:20.147Z,13.53
2022-10-20T09:56:20.140Z,13.51
2022-10-20T09:57:20.150Z,13.54
2022-10-20T09:58:20.436Z,13.58
2022-10-20T09:59:20.128Z,13.58
2022-10-20T10:00:36.141Z,13.6
2022-10-20T10:01:20.401Z,13.63
2022-10-20T10:02:20.401Z,13.68
2022-10-20T10:03:20.233Z,13.73
2022-10-20T10:04:20.507Z,13.83
2022-10-20T10:05:20.737Z,13.94
2022-10-20T10:06:20.144Z,14.07
2022-10-20T10:07:20.143Z,14.2
2022-10-20T10:08:20.154Z,14.32
2022-10-20T10:09:20.161Z,14.38
2022-10-20T10:10:20.220Z,14.44
2022-10-20T10:11:20.334Z,14.41
2022-10-20T10:12:20.149Z,14.43
2022-10-20T10:13:24.863Z,14.44
2022-10-20T10:14:20.252Z,14.41
2022-10-20T10:15:20.410Z,14.45
2022-10-20T10:16:20.292Z,14.44
2022-10-20T10:17:20.121Z,14.51
2022-10-20T10:18:20.407Z,14.49
2022-10-20T10:19:20.179Z,14.49
2022-10-20T10:20:20.409Z,14.52
2022-10-20T10:21:20.316Z,14.53
2022-10-20T10:22:20.536Z,14.48
2022-10-20T10:23:20.143Z,14.47
2022-10-20T10:24:20.130Z,14.5
2022-10-20T10:25:20.126Z,14.52
2022-10-20T10:26:20.135Z,14.53
2022-10-20T10:27:20.135Z,14.59
2022-10-20T10:28:20.169Z,14.65
2022-10-20T10:29:20.124Z,14.71
2022-10-20T10:30:20.141Z,14.83
2022-10-20T10:31:20.130Z,14.94
2022-10-20T10:32:20.160Z,15.07
2022-10-20T10:33:20.248Z,15.1
2022-10-20T10:34:20.120Z,15.12
2022-10-20T10:35:20.142Z,15.11
2022-10-20T10:36:20.132Z,15.12
2022-10-20T10:38:20.175Z,15.38
2022-10-20T10:39:20.121Z,15.47
2022-10-20T10:40:20.154Z,15.54
2022-10-20T10:41:20.145Z,15.61
2022-10-20T10:42:20.156Z,15.66
2022-10-20T10:43:20.153Z,15.69
2022-10-20T10:44:20.147Z,15.7
2022-10-20T10:45:20.134Z,15.84
2022-10-20T10:46:20.128Z,15.95
2022-10-20T10:47:20.125Z,16.07
2022-10-20T10:48:20.161Z,16.2
2022-10-20T10:49:20.136Z,16.26
2022-10-20T10:50:20.140Z,16.3
2022-10-20T10:51:20.127Z,16.35
2022-10-20T10:52:20.130Z,16.35
2022-10-20T10:53:20.168Z,16.37
2022-10-20T10:54:20.152Z,16.36
2022-10-20T10:55:44.032Z,16.36
2022-10-20T10:56:20.136Z,16.37
2022-10-20T10:57:20.129Z,16.39
2022-10-20T10:58:20.176Z,16.4
2022-10-20T10:59:20.143Z,16.38
2022-10-20T11:00:20.146Z,16.34
2022-10-20T11:01:20.188Z,16.29
2022-10-20T11:02:20.119Z,16.3
2022-10-20T11:03:20.161Z,16.23
2022-10-20T11:04:20.145Z,16.23
2022-10-20T11:05:20.157Z,16.24
2022-10-20T11:06:20.152Z,16.26
2022-10-20T11:07:20.143Z,16.27
2022-10-20T11:08:20.338Z,16.23
2022-10-20T11:09:20.136Z,16.23
2022-10-20T11:10:20.128Z,16.23
2022-10-20T11:11:20.134Z,16.19
2022-10-20T11:12:20.130Z,16.18
2022-10-20T11:13:24.566Z,16.16
2022-10-20T11:15:20.143Z,16.11
2022-10-20T11:16:20.144Z,16.08
2022-10-20T11:17:20.153Z,16.07
2022-10-20T11:18:20.142Z,16.06
2022-10-20T11:19:20.133Z,16.06
2022-10-20T11:20:20.122Z,16.07
2022-10-20T11:21:20.142Z,16.07
2022-10-20T11:22:20.124Z,16.07
2022-10-20T11:23:20.127Z,16.06
2022-10-20T11:24:20.129Z,16.07
2022-10-20T11:25:20.131Z,16.08
2022-10-20T11:26:20.130Z,16.09
2022-10-20T11:27:20.162Z,16.1
2022-10-20T11:28:20.144Z,16.1
2022-10-20T11:29:20.156Z,16.1
2022-10-20T11:30:20.143Z,16.13
2022-10-20T11:31:20.129Z,16.14
2022-10-20T11:32:20.144Z,16.12
2022-10-20T11:33:20.126Z,16.15
2022-10-20T11:34:20.126Z,16.15
2022-10-20T11:35:20.139Z,16.18
2022-10-20T11:36:20.134Z,16.2
2022-10-20T11:37:20.128Z,16.23
2022-10-20T11:38:20.152Z,16.21
2022-10-20T11:39:20.161Z,16.21
2022-10-20T11:40:20.151Z,16.2
2022-10-20T11:41:20.239Z,16.21
2022-10-20T11:42:20.126Z,16.21
2022-10-20T11:43:20.127Z,16.21
2022-10-20T11:44:20.126Z,16.23
2022-10-20T11:45:20.121Z,16.21
2022-10-20T11:46:20.130Z,16.18
2022-10-20T11:47:20.132Z,16.19
2022-10-20T11:48:20.138Z,16.2
2022-10-20T11:49:20.120Z,16.21
2022-10-20T11:50:20.266Z,16.19
2022-10-20T11:51:20.766Z,16.19
2022-10-20T11:52:20.479Z,16.15
2022-10-20T11:53:20.790Z,16.14
2022-10-20T11:54:20.217Z,16.15
2022-10-20T11:55:20.389Z,16.13
2022-10-20T11:56:20.821Z,16.13
2022-10-20T11:57:20.162Z,16.12
2022-10-20T11:58:20.227Z,16.12
2022-10-20T11:59:20.517Z,16.13
2022-10-20T12:01:20.127Z,16.12
2022-10-20T12:02:20.327Z,16.11
2022-10-20T12:03:20.441Z,16.07
2022-10-20T12:04:20.757Z,15.99
2022-10-20T12:05:20.146Z,15.97
2022-10-20T12:06:20.134Z,15.93
2022-10-20T12:07:20.123Z,15.9
2022-10-20T12:08:29.753Z,15.88
2022-10-20T12:09:20.197Z,15.86
2022-10-20T12:10:20.140Z,15.84
2022-10-20T12:11:20.139Z,15.85
2022-10-20T12:12:20.137Z,15.85
2022-10-20T12:13:20.255Z,15.82
2022-10-20T12:14:20.158Z,15.8
2022-10-20T12:15:20.138Z,15.8
2022-10-20T12:16:20.355Z,15.79
2022-10-20T12:17:20.129Z,15.78
2022-10-20T12:18:20.169Z,15.79
2022-10-20T12:19:20.130Z,15.77
2022-10-20T12:20:20.141Z,15.75
2022-10-20T12:21:20.138Z,15.72
2022-10-20T12:22:20.148Z,15.7
2022-10-20T12:23:20.214Z,15.68
2022-10-20T12:24:20.140Z,15.68
2022-10-20T12:25:20.123Z,15.65
2022-10-20T12:26:20.127Z,15.63
2022-10-20T12:27:20.161Z,15.6
2022-10-20T12:28:20.151Z,15.6
2022-10-20T12:29:20.141Z,15.6
2022-10-20T12:30:20.136Z,15.6
2022-10-20T12:31:20.132Z,15.62
2022-10-20T12:32:20.132Z,15.61
2022-10-20T12:33:20.149Z,15.61
2022-10-20T12:34:20.162Z,15.61
2022-10-20T12:35:20.147Z,15.62
2022-10-20T12:36:20.143Z,15.64
2022-10-20T12:37:20.152Z,15.67
2022-10-20T12:38:20.176Z,15.7
2022-10-20T12:39:20.158Z,15.76
2022-10-20T12:40:20.152Z,15.74
2022-10-20T12:41:20.152Z,15.74
2022-10-20T12:42:20.129Z,15.71
2022-10-20T12:43:20.123Z,15.71
2022-10-20T12:44:20.152Z,15.7
2022-10-20T12:45:20.160Z,15.67
2022-10-20T12:47:20.135Z,15.66
2022-10-20T12:48:20.166Z,15.68
2022-10-20T12:49:20.171Z,15.69
2022-10-20T12:50:20.178Z,15.71
2022-10-20T12:51:20.132Z,15.73
2022-10-20T12:52:20.130Z,15.74
2022-10-20T12:53:20.130Z,15.77
2022-10-20T12:54:20.122Z,15.77
2022-10-20T12:55:20.205Z,15.76
2022-10-20T12:56:20.169Z,15.76
2022-10-20T12:57:20.142Z,15.73
2022-10-20T12:58:20.130Z,15.7
2022-10-20T12:59:20.148Z,15.65
2022-10-20T13:00:20.178Z,15.61
2022-10-20T13:01:20.250Z,15.59
2022-10-20T13:02:20.147Z,15.55
2022-10-20T13:03:26.027Z,15.55
2022-10-20T13:04:20.359Z,15.56
2022-10-20T13:05:20.198Z,15.57
2022-10-20T13:06:20.121Z,15.56
2022-10-20T13:07:20.420Z,15.56
2022-10-20T13:08:20.406Z,15.57
2022-10-20T13:09:20.342Z,15.56
2022-10-20T13:10:20.601Z,15.55
2022-10-20T13:11:20.156Z,15.53
2022-10-20T13:12:20.143Z,15.5
2022-10-20T13:13:20.149Z,15.5
2022-10-20T13:14:20.160Z,15.48
2022-10-20T13:15:20.412Z,15.47
2022-10-20T13:16:20.124Z,15.48